sensor_id;sensor_type;location;lat;lon;timestamp;pressure;altitude;pressure_sealevel;temperature;humidity
23361;BME280;11852;50.082;18.554;2023-07-30T00:00:23;98009.5;;;21.11;81.4
23361;BME280;11852;50.082;18.554;2023-07-30T00:01:27;98006.0;;;21.01;81.82
23361;BME280;11852;50.082;18.554;2023-07-30T00:02:32;98008.5;;;21.09;81.06
23361;BME280;11852;50.082;18.554;2023-07-30T00:03:37;98011.0;;;21.05;81.22
23361;BME280;11852;50.082;18.554;2023-07-30T00:04:42;98009.5;;;21.06;80.48
23361;BME280;11852;50.082;18.554;2023-07-30T00:05:54;98010.5;;;21.06;80.33
23361;BME280;11852;50.082;18.554;2023-07-30T00:06:56;98009.0;;;21.03;80.14
23361;BME280;11852;50.082;18.554;2023-07-30T00:08:01;98004.0;;;21.06;80.1
23361;BME280;11852;50.082;18.554;2023-07-30T00:09:05;98003.0;;;21.08;80.03
23361;BME280;11852;50.082;18.554;2023-07-30T00:10:10;98000.5;;;21.07;80.07
23361;BME280;11852;50.082;18.554;2023-07-30T00:11:15;97998.0;;;21.1;80.01
23361;BME280;11852;50.082;18.554;2023-07-30T00:12:20;97999.5;;;21.11;79.77
23361;BME280;11852;50.082;18.554;2023-07-30T00:13:25;98002.5;;;21.08;79.0
23361;BME280;11852;50.082;18.554;2023-07-30T00:14:29;98002.5;;;21.06;79.42
23361;BME280;11852;50.082;18.554;2023-07-30T00:15:34;98000.0;;;21.06;79.78
23361;BME280;11852;50.082;18.554;2023-07-30T00:16:39;97999.0;;;21.06;79.7
23361;BME280;11852;50.082;18.554;2023-07-30T00:17:43;98003.0;;;21.08;79.9
23361;BME280;11852;50.082;18.554;2023-07-30T00:18:48;98007.99;;;21.05;79.52
23361;BME280;11852;50.082;18.554;2023-07-30T00:19:53;98007.99;;;20.97;80.11
23361;BME280;11852;50.082;18.554;2023-07-30T00:20:58;98007.99;;;20.86;79.82
23361;BME280;11852;50.082;18.554;2023-07-30T00:22:02;98008.5;;;20.8;79.38
23361;BME280;11852;50.082;18.554;2023-07-30T00:23:07;98008.5;;;20.8;78.44
23361;BME280;11852;50.082;18.554;2023-07-30T00:24:12;98005.5;;;20.83;78.1
23361;BME280;11852;50.082;18.554;2023-07-30T00:25:17;98003.0;;;20.86;78.18
23361;BME280;11852;50.082;18.554;2023-07-30T00:26:21;97998.0;;;20.89;78.22
23361;BME280;11852;50.082;18.554;2023-07-30T00:27:26;97992.5;;;20.9;78.33
23361;BME280;11852;50.082;18.554;2023-07-30T00:28:31;97995.49;;;20.83;78.29
23361;BME280;11852;50.082;18.554;2023-07-30T00:29:36;97989.5;;;20.86;78.11
23361;BME280;11852;50.082;18.554;2023-07-30T00:30:41;97989.0;;;20.76;78.0
23361;BME280;11852;50.082;18.554;2023-07-30T00:31:46;97987.5;;;20.7;76.94
23361;BME280;11852;50.082;18.554;2023-07-30T00:32:50;97990.5;;;20.76;76.55
23361;BME280;11852;50.082;18.554;2023-07-30T00:33:55;97988.5;;;20.74;76.66
23361;BME280;11852;50.082;18.554;2023-07-30T00:35:00;97988.0;;;20.74;75.94
23361;BME280;11852;50.082;18.554;2023-07-30T00:36:05;97991.5;;;20.76;75.49
23361;BME280;11852;50.082;18.554;2023-07-30T00:37:09;97994.49;;;20.77;75.59
23361;BME280;11852;50.082;18.554;2023-07-30T00:38:14;97998.5;;;20.82;75.63
23361;BME280;11852;50.082;18.554;2023-07-30T00:39:19;97999.5;;;20.77;75.54
23361;BME280;11852;50.082;18.554;2023-07-30T00:40:24;98002.0;;;20.77;74.94
23361;BME280;11852;50.082;18.554;2023-07-30T00:41:28;98002.0;;;20.76;75.24
23361;BME280;11852;50.082;18.554;2023-07-30T00:42:33;98001.5;;;20.74;75.26
23361;BME280;11852;50.082;18.554;2023-07-30T00:43:38;98000.5;;;20.74;74.6
23361;BME280;11852;50.082;18.554;2023-07-30T00:44:43;98000.5;;;20.76;74.49
23361;BME280;11852;50.082;18.554;2023-07-30T00:45:48;97998.0;;;20.74;74.49
23361;BME280;11852;50.082;18.554;2023-07-30T00:46:52;97999.5;;;20.74;74.41
23361;BME280;11852;50.082;18.554;2023-07-30T00:47:57;98000.5;;;20.78;74.69
23361;BME280;11852;50.082;18.554;2023-07-30T00:49:02;98002.0;;;20.8;75.04
23361;BME280;11852;50.082;18.554;2023-07-30T00:50:07;98004.0;;;20.8;75.18
23361;BME280;11852;50.082;18.554;2023-07-30T00:51:12;98008.5;;;20.83;75.28
23361;BME280;11852;50.082;18.554;2023-07-30T00:52:17;98005.51;;;20.8;75.4
23361;BME280;11852;50.082;18.554;2023-07-30T00:53:22;98006.0;;;20.83;75.64
23361;BME280;11852;50.082;18.554;2023-07-30T00:54:26;98009.5;;;20.83;75.79
23361;BME280;11852;50.082;18.554;2023-07-30T00:55:31;98009.5;;;20.85;75.83
23361;BME280;11852;50.082;18.554;2023-07-30T00:56:36;98009.0;;;20.83;76.35
23361;BME280;11852;50.082;18.554;2023-07-30T00:57:40;98007.0;;;20.56;76.88
23361;BME280;11852;50.082;18.554;2023-07-30T00:58:45;98005.5;;;20.45;77.07
23361;BME280;11852;50.082;18.554;2023-07-30T00:59:50;98006.5;;;20.4;76.99
23361;BME280;11852;50.082;18.554;2023-07-30T01:00:55;98009.5;;;20.48;76.66
23361;BME280;11852;50.082;18.554;2023-07-30T01:01:59;98014.0;;;20.54;76.63
23361;BME280;11852;50.082;18.554;2023-07-30T01:03:04;98018.5;;;20.57;76.44
23361;BME280;11852;50.082;18.554;2023-07-30T01:04:09;98020.0;;;20.56;76.28
23361;BME280;11852;50.082;18.554;2023-07-30T01:05:14;98021.0;;;20.57;76.29
23361;BME280;11852;50.082;18.554;2023-07-30T01:06:18;98021.5;;;20.55;76.33
23361;BME280;11852;50.082;18.554;2023-07-30T01:07:23;98022.5;;;20.55;76.27
23361;BME280;11852;50.082;18.554;2023-07-30T01:08:28;98018.5;;;20.52;76.5
23361;BME280;11852;50.082;18.554;2023-07-30T01:09:33;98019.5;;;20.49;76.53
23361;BME280;11852;50.082;18.554;2023-07-30T01:10:38;98018.0;;;20.45;76.5
23361;BME280;11852;50.082;18.554;2023-07-30T01:11:42;98015.0;;;20.42;76.74
23361;BME280;11852;50.082;18.554;2023-07-30T01:12:47;98014.0;;;20.38;76.96
23361;BME280;11852;50.082;18.554;2023-07-30T01:13:52;98014.0;;;20.35;77.18
23361;BME280;11852;50.082;18.554;2023-07-30T01:14:57;98012.0;;;20.35;77.11
23361;BME280;11852;50.082;18.554;2023-07-30T01:16:01;98014.0;;;20.33;76.9
23361;BME280;11852;50.082;18.554;2023-07-30T01:17:06;98012.5;;;20.33;76.85
23361;BME280;11852;50.082;18.554;2023-07-30T01:18:11;98012.5;;;20.31;76.63
23361;BME280;11852;50.082;18.554;2023-07-30T01:19:16;98013.0;;;20.31;76.66
23361;BME280;11852;50.082;18.554;2023-07-30T01:20:21;98010.5;;;20.26;76.35
23361;BME280;11852;50.082;18.554;2023-07-30T01:21:25;98012.5;;;20.24;76.19
23361;BME280;11852;50.082;18.554;2023-07-30T01:22:30;98015.0;;;20.15;76.44
23361;BME280;11852;50.082;18.554;2023-07-30T01:23:35;98014.0;;;20.17;76.38
23361;BME280;11852;50.082;18.554;2023-07-30T01:24:39;98018.0;;;20.17;76.43
23361;BME280;11852;50.082;18.554;2023-07-30T01:25:44;98022.0;;;20.19;76.54
23361;BME280;11852;50.082;18.554;2023-07-30T01:26:55;98032.0;;;20.22;76.57
23361;BME280;11852;50.082;18.554;2023-07-30T01:27:58;98040.0;;;20.23;76.13
23361;BME280;11852;50.082;18.554;2023-07-30T01:29:01;98046.5;;;20.22;75.46
23361;BME280;11852;50.082;18.554;2023-07-30T01:30:17;98049.5;;;20.22;75.38
23361;BME280;11852;50.082;18.554;2023-07-30T01:31:13;98049.0;;;20.24;75.38
23361;BME280;11852;50.082;18.554;2023-07-30T01:32:16;98047.5;;;20.24;75.19
23361;BME280;11852;50.082;18.554;2023-07-30T01:33:21;98045.5;;;20.26;75.28
23361;BME280;11852;50.082;18.554;2023-07-30T01:34:26;98045.0;;;20.27;75.36
23361;BME280;11852;50.082;18.554;2023-07-30T01:35:30;98043.5;;;20.3;75.35
23361;BME280;11852;50.082;18.554;2023-07-30T01:36:35;98039.0;;;20.28;75.29
23361;BME280;11852;50.082;18.554;2023-07-30T01:37:40;98037.0;;;20.28;75.45
23361;BME280;11852;50.082;18.554;2023-07-30T01:38:44;98035.0;;;20.27;75.79
23361;BME280;11852;50.082;18.554;2023-07-30T01:39:49;98034.0;;;20.24;76.13
23361;BME280;11852;50.082;18.554;2023-07-30T01:40:54;98032.0;;;20.17;76.44
23361;BME280;11852;50.082;18.554;2023-07-30T01:41:59;98033.5;;;20.2;76.49
23361;BME280;11852;50.082;18.554;2023-07-30T01:43:03;98037.0;;;20.21;76.46
23361;BME280;11852;50.082;18.554;2023-07-30T01:44:08;98039.0;;;20.23;76.07
23361;BME280;11852;50.082;18.554;2023-07-30T01:45:13;98038.5;;;20.23;75.91
23361;BME280;11852;50.082;18.554;2023-07-30T01:46:18;98031.0;;;20.19;75.92
23361;BME280;11852;50.082;18.554;2023-07-30T01:47:22;98028.0;;;20.19;75.83
23361;BME280;11852;50.082;18.554;2023-07-30T01:48:27;98027.0;;;20.16;75.88
23361;BME280;11852;50.082;18.554;2023-07-30T01:49:32;98028.5;;;20.15;75.99
23361;BME280;11852;50.082;18.554;2023-07-30T01:50:36;98027.5;;;20.13;76.14
23361;BME280;11852;50.082;18.554;2023-07-30T01:51:41;98032.0;;;20.09;76.38
23361;BME280;11852;50.082;18.554;2023-07-30T01:52:46;98028.5;;;20.03;76.42
23361;BME280;11852;50.082;18.554;2023-07-30T01:53:51;98029.5;;;20.01;76.55
23361;BME280;11852;50.082;18.554;2023-07-30T01:54:55;98031.0;;;20.03;76.71
23361;BME280;11852;50.082;18.554;2023-07-30T01:56:00;98031.5;;;20.05;76.76
23361;BME280;11852;50.082;18.554;2023-07-30T01:57:05;98034.0;;;20.04;76.83
23361;BME280;11852;50.082;18.554;2023-07-30T01:58:10;98036.0;;;20.05;76.98
23361;BME280;11852;50.082;18.554;2023-07-30T01:59:15;98039.5;;;20.03;77.07
23361;BME280;11852;50.082;18.554;2023-07-30T02:00:19;98037.5;;;20.03;77.29
23361;BME280;11852;50.082;18.554;2023-07-30T02:01:24;98037.0;;;20.0;77.4
23361;BME280;11852;50.082;18.554;2023-07-30T02:02:29;98034.5;;;19.97;77.57
23361;BME280;11852;50.082;18.554;2023-07-30T02:03:34;98032.49;;;19.99;77.47
23361;BME280;11852;50.082;18.554;2023-07-30T02:04:38;98032.5;;;19.94;77.61
23361;BME280;11852;50.082;18.554;2023-07-30T02:05:43;98034.5;;;19.93;77.69
23361;BME280;11852;50.082;18.554;2023-07-30T02:06:48;98037.5;;;19.92;77.74
23361;BME280;11852;50.082;18.554;2023-07-30T02:07:53;98037.0;;;19.92;77.65
23361;BME280;11852;50.082;18.554;2023-07-30T02:08:58;98038.5;;;19.9;77.65
23361;BME280;11852;50.082;18.554;2023-07-30T02:10:02;98038.0;;;19.85;77.87
23361;BME280;11852;50.082;18.554;2023-07-30T02:11:07;98037.5;;;19.85;77.9
23361;BME280;11852;50.082;18.554;2023-07-30T02:12:12;98033.5;;;19.84;77.97
23361;BME280;11852;50.082;18.554;2023-07-30T02:13:16;98033.5;;;19.83;78.07
23361;BME280;11852;50.082;18.554;2023-07-30T02:14:21;98027.0;;;19.82;78.07
23361;BME280;11852;50.082;18.554;2023-07-30T02:15:26;98029.5;;;19.83;78.08
23361;BME280;11852;50.082;18.554;2023-07-30T02:16:31;98027.5;;;19.78;78.05
23361;BME280;11852;50.082;18.554;2023-07-30T02:17:36;98027.5;;;19.8;78.19
23361;BME280;11852;50.082;18.554;2023-07-30T02:18:40;98028.5;;;19.81;78.24
23361;BME280;11852;50.082;18.554;2023-07-30T02:19:45;98027.0;;;19.81;78.23
23361;BME280;11852;50.082;18.554;2023-07-30T02:20:50;98028.0;;;19.8;78.31
23361;BME280;11852;50.082;18.554;2023-07-30T02:21:55;98026.0;;;19.82;78.16
23361;BME280;11852;50.082;18.554;2023-07-30T02:22:59;98032.0;;;19.83;78.19
23361;BME280;11852;50.082;18.554;2023-07-30T02:24:04;98036.0;;;19.77;78.46
23361;BME280;11852;50.082;18.554;2023-07-30T02:25:09;98036.5;;;19.74;78.67
23361;BME280;11852;50.082;18.554;2023-07-30T02:26:14;98038.0;;;19.72;78.79
23361;BME280;11852;50.082;18.554;2023-07-30T02:27:18;98038.5;;;19.68;78.89
23361;BME280;11852;50.082;18.554;2023-07-30T02:28:23;98038.0;;;19.66;78.88
23361;BME280;11852;50.082;18.554;2023-07-30T02:29:28;98035.0;;;19.66;78.98
23361;BME280;11852;50.082;18.554;2023-07-30T02:30:33;98037.0;;;19.65;79.07
23361;BME280;11852;50.082;18.554;2023-07-30T02:31:38;98038.0;;;19.63;79.14
23361;BME280;11852;50.082;18.554;2023-07-30T02:32:43;98036.5;;;19.63;79.19
23361;BME280;11852;50.082;18.554;2023-07-30T02:33:47;98036.5;;;19.6;79.24
23361;BME280;11852;50.082;18.554;2023-07-30T02:34:52;98037.5;;;19.59;79.24
23361;BME280;11852;50.082;18.554;2023-07-30T02:35:57;98036.5;;;19.6;79.26
23361;BME280;11852;50.082;18.554;2023-07-30T02:37:02;98035.5;;;19.63;79.21
23361;BME280;11852;50.082;18.554;2023-07-30T02:38:06;98039.0;;;19.63;79.18
23361;BME280;11852;50.082;18.554;2023-07-30T02:39:11;98037.5;;;19.64;79.23
23361;BME280;11852;50.082;18.554;2023-07-30T02:40:16;98039.0;;;19.64;79.23
23361;BME280;11852;50.082;18.554;2023-07-30T02:41:21;98040.5;;;19.65;79.26
23361;BME280;11852;50.082;18.554;2023-07-30T02:42:26;98041.5;;;19.65;79.4
23361;BME280;11852;50.082;18.554;2023-07-30T02:43:30;98043.0;;;19.66;79.39
23361;BME280;11852;50.082;18.554;2023-07-30T02:44:35;98039.5;;;19.64;79.51
23361;BME280;11852;50.082;18.554;2023-07-30T02:45:40;98040.5;;;19.6;79.63
23361;BME280;11852;50.082;18.554;2023-07-30T02:46:45;98040.0;;;19.58;79.78
23361;BME280;11852;50.082;18.554;2023-07-30T02:47:49;98043.5;;;19.53;79.94
23361;BME280;11852;50.082;18.554;2023-07-30T02:48:54;98041.5;;;19.52;80.03
23361;BME280;11852;50.082;18.554;2023-07-30T02:49:59;98040.5;;;19.54;79.97
23361;BME280;11852;50.082;18.554;2023-07-30T02:51:04;98041.0;;;19.55;79.9
23361;BME280;11852;50.082;18.554;2023-07-30T02:52:08;98040.5;;;19.54;79.93
23361;BME280;11852;50.082;18.554;2023-07-30T02:53:13;98042.5;;;19.53;79.98
23361;BME280;11852;50.082;18.554;2023-07-30T02:54:18;98042.01;;;19.49;80.1
23361;BME280;11852;50.082;18.554;2023-07-30T02:55:23;98043.5;;;19.44;80.01
23361;BME280;11852;50.082;18.554;2023-07-30T02:56:27;98047.0;;;19.44;80.08
23361;BME280;11852;50.082;18.554;2023-07-30T02:57:32;98048.0;;;19.43;80.18
23361;BME280;11852;50.082;18.554;2023-07-30T02:58:37;98050.5;;;19.45;80.05
23361;BME280;11852;50.082;18.554;2023-07-30T02:59:42;98051.5;;;19.46;79.99
23361;BME280;11852;50.082;18.554;2023-07-30T03:00:46;98053.5;;;19.45;79.84
23361;BME280;11852;50.082;18.554;2023-07-30T03:01:51;98055.5;;;19.46;79.68
23361;BME280;11852;50.082;18.554;2023-07-30T03:02:56;98055.5;;;19.37;79.99
23361;BME280;11852;50.082;18.554;2023-07-30T03:04:01;98057.0;;;19.35;79.81
23361;BME280;11852;50.082;18.554;2023-07-30T03:05:06;98058.5;;;19.33;79.98
23361;BME280;11852;50.082;18.554;2023-07-30T03:06:10;98057.99;;;19.31;80.35
23361;BME280;11852;50.082;18.554;2023-07-30T03:07:15;98061.0;;;19.31;80.4
23361;BME280;11852;50.082;18.554;2023-07-30T03:08:20;98060.5;;;19.31;80.1
23361;BME280;11852;50.082;18.554;2023-07-30T03:09:25;98061.0;;;19.32;80.04
23361;BME280;11852;50.082;18.554;2023-07-30T03:10:29;98057.99;;;19.32;80.03
23361;BME280;11852;50.082;18.554;2023-07-30T03:11:34;98059.5;;;19.32;80.19
23361;BME280;11852;50.082;18.554;2023-07-30T03:12:39;98056.5;;;19.32;80.08
23361;BME280;11852;50.082;18.554;2023-07-30T03:13:44;98058.5;;;19.26;80.15
23361;BME280;11852;50.082;18.554;2023-07-30T03:14:48;98057.49;;;19.26;80.28
23361;BME280;11852;50.082;18.554;2023-07-30T03:15:53;98057.99;;;19.26;80.41
23361;BME280;11852;50.082;18.554;2023-07-30T03:16:58;98060.0;;;19.26;80.43
23361;BME280;11852;50.082;18.554;2023-07-30T03:18:03;98062.0;;;19.26;80.34
23361;BME280;11852;50.082;18.554;2023-07-30T03:19:08;98059.0;;;19.24;80.35
23361;BME280;11852;50.082;18.554;2023-07-30T03:20:12;98060.5;;;19.24;80.36
23361;BME280;11852;50.082;18.554;2023-07-30T03:21:17;98058.0;;;19.24;80.32
23361;BME280;11852;50.082;18.554;2023-07-30T03:22:22;98062.5;;;19.18;80.44
23361;BME280;11852;50.082;18.554;2023-07-30T03:23:27;98063.5;;;19.12;80.68
23361;BME280;11852;50.082;18.554;2023-07-30T03:24:32;98065.5;;;19.11;80.83
23361;BME280;11852;50.082;18.554;2023-07-30T03:25:36;98068.01;;;19.11;80.9
23361;BME280;11852;50.082;18.554;2023-07-30T03:26:41;98069.5;;;19.08;81.1
23361;BME280;11852;50.082;18.554;2023-07-30T03:27:46;98068.5;;;19.12;81.07
23361;BME280;11852;50.082;18.554;2023-07-30T03:28:51;98071.0;;;19.14;81.1
23361;BME280;11852;50.082;18.554;2023-07-30T03:29:55;98073.0;;;19.13;81.15
23361;BME280;11852;50.082;18.554;2023-07-30T03:31:00;98073.5;;;19.14;81.22
23361;BME280;11852;50.082;18.554;2023-07-30T03:32:05;98069.99;;;19.14;81.19
23361;BME280;11852;50.082;18.554;2023-07-30T03:33:10;98071.5;;;19.13;81.18
23361;BME280;11852;50.082;18.554;2023-07-30T03:34:15;98070.49;;;19.1;81.24
23361;BME280;11852;50.082;18.554;2023-07-30T03:35:19;98075.0;;;19.09;81.36
23361;BME280;11852;50.082;18.554;2023-07-30T03:36:24;98073.5;;;19.06;81.4
23361;BME280;11852;50.082;18.554;2023-07-30T03:37:29;98075.5;;;19.07;81.43
23361;BME280;11852;50.082;18.554;2023-07-30T03:38:34;98075.0;;;19.06;81.49
23361;BME280;11852;50.082;18.554;2023-07-30T03:39:39;98073.5;;;19.08;81.55
23361;BME280;11852;50.082;18.554;2023-07-30T03:40:43;98073.5;;;19.1;81.48
23361;BME280;11852;50.082;18.554;2023-07-30T03:41:48;98074.5;;;19.09;81.36
23361;BME280;11852;50.082;18.554;2023-07-30T03:42:53;98074.5;;;19.12;81.4
23361;BME280;11852;50.082;18.554;2023-07-30T03:43:58;98076.0;;;19.12;81.32
23361;BME280;11852;50.082;18.554;2023-07-30T03:45:03;98075.5;;;19.11;81.32
23361;BME280;11852;50.082;18.554;2023-07-30T03:46:07;98076.0;;;19.11;81.38
23361;BME280;11852;50.082;18.554;2023-07-30T03:47:12;98077.5;;;19.14;81.38
23361;BME280;11852;50.082;18.554;2023-07-30T03:48:17;98075.5;;;19.13;81.43
23361;BME280;11852;50.082;18.554;2023-07-30T03:49:22;98074.5;;;19.14;81.4
23361;BME280;11852;50.082;18.554;2023-07-30T03:50:26;98075.0;;;19.13;81.35
23361;BME280;11852;50.082;18.554;2023-07-30T03:51:31;98071.5;;;19.15;81.41
23361;BME280;11852;50.082;18.554;2023-07-30T03:52:36;98071.0;;;19.13;81.47
23361;BME280;11852;50.082;18.554;2023-07-30T03:53:41;98074.0;;;19.1;81.53
23361;BME280;11852;50.082;18.554;2023-07-30T03:54:46;98072.0;;;19.08;81.64
23361;BME280;11852;50.082;18.554;2023-07-30T03:55:50;98069.5;;;19.06;81.69
23361;BME280;11852;50.082;18.554;2023-07-30T03:56:55;98069.5;;;19.08;81.74
23361;BME280;11852;50.082;18.554;2023-07-30T03:58:00;98072.5;;;19.08;81.68
23361;BME280;11852;50.082;18.554;2023-07-30T03:59:05;98071.0;;;19.09;81.77
23361;BME280;11852;50.082;18.554;2023-07-30T04:00:10;98070.49;;;19.14;81.69
23361;BME280;11852;50.082;18.554;2023-07-30T04:01:14;98069.5;;;19.15;81.68
23361;BME280;11852;50.082;18.554;2023-07-30T04:02:19;98070.49;;;19.17;81.71
23361;BME280;11852;50.082;18.554;2023-07-30T04:03:24;98071.0;;;19.19;81.67
23361;BME280;11852;50.082;18.554;2023-07-30T04:04:29;98065.5;;;19.18;81.73
23361;BME280;11852;50.082;18.554;2023-07-30T04:05:33;98067.51;;;19.2;81.72
23361;BME280;11852;50.082;18.554;2023-07-30T04:06:38;98067.5;;;19.2;81.72
23361;BME280;11852;50.082;18.554;2023-07-30T04:07:43;98069.0;;;19.22;81.65
23361;BME280;11852;50.082;18.554;2023-07-30T04:08:48;98071.0;;;19.24;81.61
23361;BME280;11852;50.082;18.554;2023-07-30T04:09:53;98074.0;;;19.24;81.58
23361;BME280;11852;50.082;18.554;2023-07-30T04:10:57;98077.5;;;19.23;81.65
23361;BME280;11852;50.082;18.554;2023-07-30T04:12:02;98076.0;;;19.23;81.68
23361;BME280;11852;50.082;18.554;2023-07-30T04:13:07;98074.5;;;19.2;81.83
23361;BME280;11852;50.082;18.554;2023-07-30T04:14:12;98076.0;;;19.15;82.11
23361;BME280;11852;50.082;18.554;2023-07-30T04:15:17;98075.5;;;19.17;82.11
23361;BME280;11852;50.082;18.554;2023-07-30T04:16:21;98078.0;;;19.18;82.1
23361;BME280;11852;50.082;18.554;2023-07-30T04:17:26;98079.0;;;19.19;82.19
23361;BME280;11852;50.082;18.554;2023-07-30T04:18:31;98082.49;;;19.19;82.21
23361;BME280;11852;50.082;18.554;2023-07-30T04:19:36;98082.5;;;19.19;82.31
23361;BME280;11852;50.082;18.554;2023-07-30T04:20:41;98089.0;;;19.22;82.63
23361;BME280;11852;50.082;18.554;2023-07-30T04:21:45;98089.5;;;19.22;82.74
23361;BME280;11852;50.082;18.554;2023-07-30T04:22:50;98091.0;;;19.24;82.85
23361;BME280;11852;50.082;18.554;2023-07-30T04:23:55;98088.0;;;19.25;83.0
23361;BME280;11852;50.082;18.554;2023-07-30T04:25:00;98089.5;;;19.26;83.18
23361;BME280;11852;50.082;18.554;2023-07-30T04:26:04;98088.5;;;19.27;83.31
23361;BME280;11852;50.082;18.554;2023-07-30T04:27:09;98089.0;;;19.3;83.28
23361;BME280;11852;50.082;18.554;2023-07-30T04:28:14;98086.5;;;19.3;83.32
23361;BME280;11852;50.082;18.554;2023-07-30T04:29:19;98085.0;;;19.31;83.38
23361;BME280;11852;50.082;18.554;2023-07-30T04:30:24;98081.5;;;19.33;83.4
23361;BME280;11852;50.082;18.554;2023-07-30T04:31:28;98085.5;;;19.36;83.43
23361;BME280;11852;50.082;18.554;2023-07-30T04:32:33;98085.5;;;19.39;83.47
23361;BME280;11852;50.082;18.554;2023-07-30T04:33:40;98086.0;;;19.41;83.57
23361;BME280;11852;50.082;18.554;2023-07-30T04:34:46;98080.51;;;19.46;83.57
23361;BME280;11852;50.082;18.554;2023-07-30T04:35:52;98076.0;;;19.48;83.6
23361;BME280;11852;50.082;18.554;2023-07-30T04:36:58;98075.0;;;19.5;83.58
23361;BME280;11852;50.082;18.554;2023-07-30T04:38:04;98069.0;;;19.53;83.57
23361;BME280;11852;50.082;18.554;2023-07-30T04:39:09;98071.0;;;19.58;83.51
23361;BME280;11852;50.082;18.554;2023-07-30T04:40:13;98068.5;;;19.6;83.57
23361;BME280;11852;50.082;18.554;2023-07-30T04:41:18;98066.0;;;19.64;83.54
23361;BME280;11852;50.082;18.554;2023-07-30T04:42:23;98067.01;;;19.69;83.49
23361;BME280;11852;50.082;18.554;2023-07-30T04:43:28;98065.0;;;19.72;83.45
23361;BME280;11852;50.082;18.554;2023-07-30T04:44:33;98066.5;;;19.76;83.36
23361;BME280;11852;50.082;18.554;2023-07-30T04:45:37;98065.5;;;19.78;83.21
23361;BME280;11852;50.082;18.554;2023-07-30T04:46:42;98069.5;;;19.83;82.99
23361;BME280;11852;50.082;18.554;2023-07-30T04:47:47;98073.5;;;19.85;83.0
23361;BME280;11852;50.082;18.554;2023-07-30T04:48:52;98076.0;;;19.9;82.84
23361;BME280;11852;50.082;18.554;2023-07-30T04:49:56;98081.5;;;19.92;82.58
23361;BME280;11852;50.082;18.554;2023-07-30T04:51:01;98081.5;;;19.93;82.57
23361;BME280;11852;50.082;18.554;2023-07-30T04:52:06;98080.5;;;19.88;82.84
23361;BME280;11852;50.082;18.554;2023-07-30T04:53:11;98081.0;;;19.91;81.98
23361;BME280;11852;50.082;18.554;2023-07-30T04:54:16;98082.5;;;19.99;81.85
23361;BME280;11852;50.082;18.554;2023-07-30T04:55:21;98081.5;;;20.04;81.28
23361;BME280;11852;50.082;18.554;2023-07-30T04:56:26;98083.5;;;20.08;80.74
23361;BME280;11852;50.082;18.554;2023-07-30T04:57:31;98080.0;;;20.12;80.62
23361;BME280;11852;50.082;18.554;2023-07-30T04:58:36;98079.0;;;20.17;80.6
23361;BME280;11852;50.082;18.554;2023-07-30T04:59:40;98080.0;;;20.17;80.63
23361;BME280;11852;50.082;18.554;2023-07-30T05:00:45;98081.5;;;20.23;80.58
23361;BME280;11852;50.082;18.554;2023-07-30T05:01:50;98078.5;;;20.26;80.32
23361;BME280;11852;50.082;18.554;2023-07-30T05:02:55;98081.0;;;20.3;80.02
23361;BME280;11852;50.082;18.554;2023-07-30T05:03:59;98079.51;;;20.33;79.38
23361;BME280;11852;50.082;18.554;2023-07-30T05:05:04;98080.5;;;20.35;78.96
23361;BME280;11852;50.082;18.554;2023-07-30T05:06:09;98084.5;;;20.38;78.5
23361;BME280;11852;50.082;18.554;2023-07-30T05:07:14;98088.0;;;20.4;78.25
23361;BME280;11852;50.082;18.554;2023-07-30T05:08:18;98090.0;;;20.4;78.44
23361;BME280;11852;50.082;18.554;2023-07-30T05:09:23;98094.0;;;20.4;78.53
23361;BME280;11852;50.082;18.554;2023-07-30T05:10:28;98095.0;;;20.4;78.19
23361;BME280;11852;50.082;18.554;2023-07-30T05:11:33;98097.5;;;20.43;78.06
23361;BME280;11852;50.082;18.554;2023-07-30T05:12:37;98097.0;;;20.23;78.73
23361;BME280;11852;50.082;18.554;2023-07-30T05:13:42;98100.5;;;20.36;78.57
23361;BME280;11852;50.082;18.554;2023-07-30T05:14:47;98099.0;;;20.23;79.28
23361;BME280;11852;50.082;18.554;2023-07-30T05:15:52;98103.0;;;20.22;79.44
23361;BME280;11852;50.082;18.554;2023-07-30T05:16:56;98106.0;;;20.2;79.78
23361;BME280;11852;50.082;18.554;2023-07-30T05:18:01;98108.5;;;20.03;80.85
23361;BME280;11852;50.082;18.554;2023-07-30T05:19:06;98109.0;;;20.05;80.71
23361;BME280;11852;50.082;18.554;2023-07-30T05:20:11;98113.0;;;20.16;80.35
23361;BME280;11852;50.082;18.554;2023-07-30T05:21:16;98112.0;;;20.23;79.6
23361;BME280;11852;50.082;18.554;2023-07-30T05:22:20;98115.5;;;20.26;79.72
23361;BME280;11852;50.082;18.554;2023-07-30T05:23:25;98114.0;;;20.26;80.02
23361;BME280;11852;50.082;18.554;2023-07-30T05:24:30;98115.0;;;20.26;80.11
23361;BME280;11852;50.082;18.554;2023-07-30T05:25:34;98111.5;;;20.28;80.18
23361;BME280;11852;50.082;18.554;2023-07-30T05:26:39;98112.5;;;20.34;80.07
23361;BME280;11852;50.082;18.554;2023-07-30T05:27:44;98109.0;;;20.37;80.28
23361;BME280;11852;50.082;18.554;2023-07-30T05:28:48;98115.0;;;20.33;80.52
23361;BME280;11852;50.082;18.554;2023-07-30T05:29:53;98115.5;;;20.23;80.85
23361;BME280;11852;50.082;18.554;2023-07-30T05:30:58;98117.51;;;20.3;80.61
23361;BME280;11852;50.082;18.554;2023-07-30T05:32:03;98116.5;;;20.43;80.63
23361;BME280;11852;50.082;18.554;2023-07-30T05:33:08;98119.49;;;20.51;80.64
23361;BME280;11852;50.082;18.554;2023-07-30T05:34:12;98116.5;;;20.6;80.45
23361;BME280;11852;50.082;18.554;2023-07-30T05:35:17;98117.01;;;20.61;80.54
23361;BME280;11852;50.082;18.554;2023-07-30T05:36:22;98115.5;;;20.6;80.58
23361;BME280;11852;50.082;18.554;2023-07-30T05:37:27;98112.0;;;20.68;80.7
23361;BME280;11852;50.082;18.554;2023-07-30T05:38:31;98115.5;;;20.69;80.79
23361;BME280;11852;50.082;18.554;2023-07-30T05:39:36;98115.5;;;20.72;80.93
23361;BME280;11852;50.082;18.554;2023-07-30T05:40:41;98113.5;;;20.69;81.23
23361;BME280;11852;50.082;18.554;2023-07-30T05:41:46;98113.5;;;20.56;82.25
23361;BME280;11852;50.082;18.554;2023-07-30T05:42:50;98115.5;;;20.66;81.88
23361;BME280;11852;50.082;18.554;2023-07-30T05:43:55;98116.0;;;20.76;81.58